Time;durP1;ratioP1;P1;durP2;ratioP2;P2;SDS_P1;SDS_P2;PMS_P1;PMS_P2;Temp;Humidity;BMP_temperature;BMP_pressure;BME280_temperature;BME280_humidity;BME280_pressure;Samples;Min_cycle;Max_cycle;Signal;HPM_P1;HPM_P2
2022/04/18 00:02:05;;;;;;;;;;;9.30;99.90;;;;;;5050214;28;20059;-69
2022/04/18 00:04:33;;;;;;;;;;;9.30;99.90;;;;;;5050108;28;19928;-68
2022/04/18 00:06:59;;;;;;;;;;;9.20;99.90;;;;;;5050271;28;19932;-68
2022/04/18 00:09:29;;;;;;;;;;;9.20;99.90;;;;;;5049880;28;19925;-69
2022/04/18 00:11:56;;;;;;;;;;;9.20;99.90;;;;;;5049969;28;19968;-68
2022/04/18 00:14:22;;;;;;;;;;;9.20;99.90;;;;;;5049979;28;19925;-69
2022/04/18 00:16:49;;;;;;;;;;;9.20;99.90;;;;;;5049824;28;20319;-69
2022/04/18 00:19:16;;;;;;;;;;;9.10;99.90;;;;;;5050102;28;19924;-69
2022/04/18 00:21:43;;;;;;;;;;;9.00;99.90;;;;;;5049705;28;19925;-69
2022/04/18 00:24:11;;;;;;;;;;;9.00;99.90;;;;;;5049717;28;19932;-69
2022/04/18 00:26:39;;;;;;;;;;;8.90;99.90;;;;;;5049587;28;19925;-69
2022/04/18 00:29:06;;;;;;;;;;;8.80;99.90;;;;;;5049593;28;19924;-68
2022/04/18 00:31:33;;;;;;;;;;;8.80;99.90;;;;;;5049673;28;19970;-69
2022/04/18 00:34:00;;;;;;;;;;;8.80;99.90;;;;;;5049604;28;19924;-69
2022/04/18 00:36:27;;;;;;;;;;;8.80;99.90;;;;;;5049724;28;20002;-69
2022/04/18 00:38:53;;;;;;;;;;;8.80;99.90;;;;;;5055484;28;20403;-69
2022/04/18 00:41:20;;;;;;;;;;;8.70;99.90;;;;;;5059103;28;19924;-71
2022/04/18 00:43:50;;;;;;;;;;;8.70;99.90;;;;;;5068398;28;19925;-68
2022/04/18 00:46:18;;;;;;;;;;;8.60;99.90;;;;;;5069908;28;20012;-68
2022/04/18 00:48:45;;;;;;;;;;;8.60;99.90;;;;;;5069451;28;19936;-68
2022/04/18 00:51:13;;;;;;;;;;;8.60;99.90;;;;;;5069633;28;19974;-68
2022/04/18 00:53:40;;;;;;;;;;;8.50;99.90;;;;;;5055284;28;19924;-69
2022/04/18 00:56:08;;;;;;;;;;;8.50;99.90;;;;;;5049121;28;20384;-69
2022/04/18 00:58:35;;;;;;;;;;;8.50;99.90;;;;;;5049654;28;19931;-68
2022/04/18 01:01:04;;;;;;;;;;;8.50;99.90;;;;;;5049333;28;20392;-68
2022/04/18 01:03:31;;;;;;;;;;;8.50;99.90;;;;;;5049417;28;19925;-68
2022/04/18 01:05:59;;;;;;;;;;;8.50;99.90;;;;;;5049563;28;19932;-69
2022/04/18 01:08:26;;;;;;;;;;;8.40;99.90;;;;;;5049560;28;20084;-69
2022/04/18 01:10:54;;;;;;;;;;;8.40;99.90;;;;;;5053329;28;19925;-69
2022/04/18 01:13:25;;;;;;;;;;;8.40;99.90;;;;;;5053071;28;19925;-68
2022/04/18 01:15:58;;;;;;;;;;;8.40;99.90;;;;;;5053321;28;19925;-68
2022/04/18 01:18:38;;;;;;;;;;;8.40;99.90;;;;;;5053447;28;19960;-68
2022/04/18 01:21:19;;;;;;;;;;;8.40;99.90;;;;;;5053173;28;19929;-68
2022/04/18 01:29:46;;;;;;;;;;;8.20;99.90;;;;;;5052525;28;19928;-68
2022/04/18 01:32:13;;;;;;;;;;;8.20;99.90;;;;;;5052938;28;20403;-69
2022/04/18 01:34:40;;;;;;;;;;;8.20;99.90;;;;;;5052902;28;19928;-69
2022/04/18 01:37:08;;;;;;;;;;;8.20;99.90;;;;;;5053022;28;19924;-69
2022/04/18 01:39:35;;;;;;;;;;;8.10;99.90;;;;;;5051902;28;19925;-68
2022/04/18 01:42:03;;;;;;;;;;;8.20;99.90;;;;;;5052744;28;20307;-69
2022/04/18 01:44:30;;;;;;;;;;;8.20;99.90;;;;;;5052401;28;19924;-68
2022/04/18 01:46:57;;;;;;;;;;;8.20;99.90;;;;;;5052627;28;19939;-69
2022/04/18 01:49:25;;;;;;;;;;;8.10;99.90;;;;;;5052406;28;19932;-68
2022/04/18 01:51:51;;;;;;;;;;;8.10;99.90;;;;;;5052951;28;20399;-68
2022/04/18 01:54:20;;;;;;;;;;;8.10;99.90;;;;;;5052182;28;19960;-68
2022/04/18 01:56:47;;;;;;;;;;;8.00;99.90;;;;;;5052430;28;19925;-68
2022/04/18 01:59:14;;;;;;;;;;;8.00;99.90;;;;;;5051859;28;20416;-69
2022/04/18 02:01:42;;;;;;;;;;;8.00;99.90;;;;;;5052642;28;19924;-68
2022/04/18 02:04:10;;;;;;;;;;;7.90;99.90;;;;;;5052276;28;19970;-68
2022/04/18 02:06:36;;;;;;;;;;;7.90;99.90;;;;;;5052081;28;20347;-69
2022/04/18 02:09:04;;;;;;;;;;;7.90;99.90;;;;;;5051987;28;19925;-66
2022/04/18 02:11:33;;;;;;;;;;;7.90;99.90;;;;;;5052288;28;20347;-69
2022/04/18 02:14:00;;;;;;;;;;;7.90;99.90;;;;;;5051764;28;19925;-68
2022/04/18 02:16:28;;;;;;;;;;;7.90;99.90;;;;;;5051983;28;20423;-69
2022/04/18 02:18:56;;;;;;;;;;;7.80;99.90;;;;;;5051925;28;19953;-68
2022/04/18 02:21:23;;;;;;;;;;;7.80;99.90;;;;;;5051001;28;19929;-68
2022/04/18 02:23:50;;;;;;;;;;;7.80;99.90;;;;;;5051609;28;19932;-69
2022/04/18 02:26:17;;;;;;;;;;;7.70;99.90;;;;;;5051999;28;19925;-68
2022/04/18 02:28:49;;;;;;;;;;;7.70;99.90;;;;;;5052073;28;19929;-67
2022/04/18 02:31:16;;;;;;;;;;;7.60;99.90;;;;;;5052028;28;20291;-68
2022/04/18 02:33:43;;;;;;;;;;;7.60;99.90;;;;;;5051798;28;19936;-68
2022/04/18 02:36:10;;;;;;;;;;;7.50;99.90;;;;;;5051735;28;19925;-69
2022/04/18 02:38:37;;;;;;;;;;;7.50;99.90;;;;;;5051468;28;20019;-69
2022/04/18 02:41:04;;;;;;;;;;;7.50;99.90;;;;;;5051466;28;20403;-70
2022/04/18 02:43:31;;;;;;;;;;;7.50;99.90;;;;;;5051795;28;19924;-69
2022/04/18 02:46:05;;;;;;;;;;;7.40;99.90;;;;;;5051779;28;19925;-69
2022/04/18 02:48:42;;;;;;;;;;;7.40;99.90;;;;;;5051492;28;19931;-69
2022/04/18 02:51:12;;;;;;;;;;;7.40;99.90;;;;;;5051364;28;19932;-69
2022/04/18 02:53:38;;;;;;;;;;;7.40;99.90;;;;;;5051065;28;19929;-69
2022/04/18 02:56:08;;;;;;;;;;;7.30;99.90;;;;;;5051369;28;19925;-69
2022/04/18 02:58:39;;;;;;;;;;;7.30;99.90;;;;;;5051373;28;20281;-69
2022/04/18 03:01:08;;;;;;;;;;;7.30;99.90;;;;;;5051236;28;19932;-69
2022/04/18 03:03:35;;;;;;;;;;;7.20;99.90;;;;;;5051245;28;19931;-70
2022/04/18 03:06:04;;;;;;;;;;;7.20;99.90;;;;;;5050895;28;19924;-70
2022/04/18 03:08:31;;;;;;;;;;;7.20;99.90;;;;;;5051038;28;19925;-69
2022/04/18 03:11:04;;;;;;;;;;;7.20;99.90;;;;;;5051122;28;19931;-70
2022/04/18 03:13:33;;;;;;;;;;;7.20;99.90;;;;;;5051008;28;19975;-66
2022/04/18 03:16:04;;;;;;;;;;;7.20;99.90;;;;;;5051054;28;19932;-69
2022/04/18 03:18:33;;;;;;;;;;;7.20;99.90;;;;;;5050838;28;19925;-69
2022/04/18 03:21:00;;;;;;;;;;;7.10;99.90;;;;;;5050703;28;19925;-69
2022/04/18 03:23:27;;;;;;;;;;;7.10;99.90;;;;;;5050839;28;19931;-69
2022/04/18 03:26:14;;;;;;;;;;;7.00;99.90;;;;;;5051003;28;19951;-69
2022/04/18 03:28:59;;;;;;;;;;;7.00;99.90;;;;;;5052117;28;19936;-69
2022/04/18 03:31:26;;;;;;;;;;;6.90;99.90;;;;;;5050797;28;19955;-69
2022/04/18 03:33:55;;;;;;;;;;;6.90;99.90;;;;;;5050730;28;19971;-69
2022/04/18 03:41:52;;;;;;;;;;;6.80;99.90;;;;;;5050618;28;19921;-69
2022/04/18 03:44:19;;;;;;;;;;;6.80;99.90;;;;;;5050477;28;19924;-69
2022/04/18 03:46:45;;;;;;;;;;;6.80;99.90;;;;;;5050494;28;20510;-69
2022/04/18 03:49:14;;;;;;;;;;;6.80;99.90;;;;;;5050550;28;20414;-69
2022/04/18 03:51:44;;;;;;;;;;;6.80;99.90;;;;;;5050557;28;19928;-69
2022/04/18 03:54:12;;;;;;;;;;;6.80;99.90;;;;;;5050607;28;20006;-69
2022/04/18 03:56:39;;;;;;;;;;;6.80;99.90;;;;;;5050499;28;19935;-70
2022/04/18 03:59:09;;;;;;;;;;;6.80;99.90;;;;;;5051526;28;19925;-69
2022/04/18 04:01:56;;;;;;;;;;;6.80;99.90;;;;;;5050320;28;20023;-68
2022/04/18 04:04:25;;;;;;;;;;;6.70;99.90;;;;;;5050129;28;19925;-69
2022/04/18 04:06:52;;;;;;;;;;;6.70;99.90;;;;;;5050541;28;19991;-71
2022/04/18 04:09:20;;;;;;;;;;;6.70;99.90;;;;;;5050279;28;19925;-69
2022/04/18 04:11:46;;;;;;;;;;;6.60;99.90;;;;;;5050368;28;19979;-71
2022/04/18 04:14:13;;;;;;;;;;;6.50;99.90;;;;;;5049901;28;19963;-69
2022/04/18 04:16:41;;;;;;;;;;;6.50;99.90;;;;;;5049888;28;19925;-70
2022/04/18 04:19:08;;;;;;;;;;;6.50;99.90;;;;;;5050028;28;20479;-69
2022/04/18 04:21:36;;;;;;;;;;;6.50;99.90;;;;;;5050397;28;19950;-69
2022/04/18 04:24:03;;;;;;;;;;;6.50;99.90;;;;;;5050025;28;20281;-69
2022/04/18 04:26:36;;;;;;;;;;;6.50;99.90;;;;;;5050098;28;19925;-68
2022/04/18 04:29:03;;;;;;;;;;;6.50;99.90;;;;;;5049965;28;19924;-69
2022/04/18 04:31:35;;;;;;;;;;;6.50;99.90;;;;;;5050076;28;19971;-69
2022/04/18 04:34:03;;;;;;;;;;;6.50;99.90;;;;;;5050152;28;19932;-68
2022/04/18 04:36:36;;;;;;;;;;;6.60;99.90;;;;;;5050031;28;19925;-69
2022/04/18 04:39:03;;;;;;;;;;;6.50;99.90;;;;;;5049856;28;19924;-69
2022/04/18 04:41:38;;;;;;;;;;;6.50;99.90;;;;;;5050163;28;19925;-69
2022/04/18 04:44:05;;;;;;;;;;;6.50;99.90;;;;;;5051348;28;20363;-69
2022/04/18 04:46:39;;;;;;;;;;;6.50;99.90;;;;;;5054405;28;19952;-69
2022/04/18 04:49:12;;;;;;;;;;;6.50;99.90;;;;;;5053981;28;19931;-66
2022/04/18 04:51:45;;;;;;;;;;;6.50;99.90;;;;;;5054143;28;19924;-69
2022/04/18 04:54:13;;;;;;;;;;;6.60;99.90;;;;;;5053703;28;20027;-68
2022/04/18 04:56:42;;;;;;;;;;;6.60;99.90;;;;;;5054276;28;19925;-69
2022/04/18 04:59:10;;;;;;;;;;;6.60;99.90;;;;;;5053947;28;19960;-69
2022/04/18 05:01:37;;;;;;;;;;;6.60;99.90;;;;;;5053237;28;19931;-69
2022/04/18 05:04:07;;;;;;;;;;;6.60;99.90;;;;;;5065784;28;19925;-69
2022/04/18 05:06:35;;;;;;;;;;;6.60;99.90;;;;;;5070413;28;20018;-69
2022/04/18 05:09:07;;;;;;;;;;;6.70;99.90;;;;;;5053495;28;20395;-71
2022/04/18 05:11:35;;;;;;;;;;;6.70;99.90;;;;;;5053456;28;19936;-69
2022/04/18 05:14:03;;;;;;;;;;;6.70;99.90;;;;;;5053014;28;19925;-69
2022/04/18 05:17:00;;;;;;;;;;;6.70;99.90;;;;;;5049533;28;19931;-69
2022/04/18 05:19:33;;;;;;;;;;;6.70;99.90;;;;;;5052741;28;20023;-70
2022/04/18 05:22:16;;;;;;;;;;;6.70;99.90;;;;;;5053500;28;20005;-69
2022/04/18 05:24:47;;;;;;;;;;;6.80;99.90;;;;;;5052992;28;19928;-69
2022/04/18 05:27:17;;;;;;;;;;;6.80;99.90;;;;;;5053123;28;19924;-69
2022/04/18 05:29:46;;;;;;;;;;;7.00;99.90;;;;;;5052557;28;19955;-70
2022/04/18 05:32:13;;;;;;;;;;;7.10;99.90;;;;;;5053115;28;19925;-69
2022/04/18 05:34:47;;;;;;;;;;;7.10;99.90;;;;;;5052638;28;19932;-69
2022/04/18 05:37:22;;;;;;;;;;;7.10;99.90;;;;;;5063641;28;19924;-70
2022/04/18 05:40:11;;;;;;;;;;;7.10;99.90;;;;;;5072522;28;19932;-69
2022/04/18 05:42:38;;;;;;;;;;;7.20;99.90;;;;;;5072654;28;20319;-69
2022/04/18 05:45:13;;;;;;;;;;;7.30;99.90;;;;;;5072743;28;19924;-70
2022/04/18 05:47:43;;;;;;;;;;;7.30;99.90;;;;;;5072801;28;20027;-70
2022/04/18 05:50:10;;;;;;;;;;;7.40;99.90;;;;;;5072257;28;19931;-69
2022/04/18 05:52:48;;;;;;;;;;;7.40;99.90;;;;;;5072717;28;20388;-69
2022/04/18 05:55:49;;;;;;;;;;;7.50;99.90;;;;;;5066655;28;19993;-69
2022/04/18 05:58:35;;;;;;;;;;;7.60;99.90;;;;;;5072387;28;19924;-70
2022/04/18 06:01:10;;;;;;;;;;;7.60;99.90;;;;;;5072368;28;19936;-70
2022/04/18 06:03:37;;;;;;;;;;;7.70;99.90;;;;;;5072141;28;19924;-70
2022/04/18 06:06:04;;;;;;;;;;;7.80;99.90;;;;;;5072448;28;19928;-70
2022/04/18 06:08:31;;;;;;;;;;;7.90;99.90;;;;;;5072440;28;19924;-70
2022/04/18 06:11:04;;;;;;;;;;;8.00;99.90;;;;;;5065349;28;19925;-70
2022/04/18 06:13:52;;;;;;;;;;;8.10;99.90;;;;;;5052251;28;19929;-69
2022/04/18 06:16:19;;;;;;;;;;;8.20;99.90;;;;;;5052491;28;19925;-70
2022/04/18 06:18:48;;;;;;;;;;;8.30;99.90;;;;;;5052046;28;20312;-68
2022/04/18 06:21:16;;;;;;;;;;;8.40;99.90;;;;;;5052321;28;19929;-69
2022/04/18 06:23:45;;;;;;;;;;;8.60;99.90;;;;;;5051762;28;19932;-70
2022/04/18 06:26:31;;;;;;;;;;;8.60;99.90;;;;;;5085697;23;19931;-72
2022/04/18 06:28:59;;;;;;;;;;;8.70;99.90;;;;;;5082828;28;20403;-73
2022/04/18 06:31:26;;;;;;;;;;;8.80;99.90;;;;;;5092041;28;20015;-72
2022/04/18 06:33:57;;;;;;;;;;;8.80;99.90;;;;;;5091727;28;19924;-71
2022/04/18 06:36:24;;;;;;;;;;;8.90;99.90;;;;;;5091728;28;19924;-71
2022/04/18 06:39:10;;;;;;;;;;;9.00;99.90;;;;;;5091617;28;19924;-71
2022/04/18 06:41:39;;;;;;;;;;;9.10;99.90;;;;;;5092091;28;19970;-71
2022/04/18 06:44:07;;;;;;;;;;;9.20;99.90;;;;;;5091518;28;19924;-71
2022/04/18 06:46:48;;;;;;;;;;;9.30;99.90;;;;;;5091574;28;19966;-71
2022/04/18 06:49:28;;;;;;;;;;;9.40;99.90;;;;;;5091450;28;19947;-73
2022/04/18 06:52:14;;;;;;;;;;;9.40;99.90;;;;;;5093736;28;19935;-73
2022/04/18 06:55:01;;;;;;;;;;;9.50;99.90;;;;;;5068268;28;19976;-73
2022/04/18 06:57:28;;;;;;;;;;;9.50;99.90;;;;;;5068039;28;20031;-73
2022/04/18 06:59:58;;;;;;;;;;;9.60;99.90;;;;;;5071401;28;19925;-70
2022/04/18 07:02:27;;;;;;;;;;;9.60;99.90;;;;;;5071288;28;19967;-71
2022/04/18 07:04:55;;;;;;;;;;;9.70;99.90;;;;;;5071071;28;19924;-71
2022/04/18 07:07:22;;;;;;;;;;;9.70;99.90;;;;;;5070838;28;19932;-71
2022/04/18 07:09:49;;;;;;;;;;;9.80;99.90;;;;;;5070759;28;20022;-72
2022/04/18 07:12:20;;;;;;;;;;;9.90;99.90;;;;;;5053981;28;20028;-71
2022/04/18 07:14:48;;;;;;;;;;;10.00;99.90;;;;;;5051100;28;19925;-71
2022/04/18 07:17:15;;;;;;;;;;;10.00;99.90;;;;;;5051037;28;20386;-71
2022/04/18 07:19:42;;;;;;;;;;;10.10;99.90;;;;;;5050864;28;19924;-71
2022/04/18 07:22:14;;;;;;;;;;;10.20;99.90;;;;;;5050912;28;19925;-72
2022/04/18 07:24:42;;;;;;;;;;;10.30;99.90;;;;;;5050806;28;20400;-71
2022/04/18 07:27:09;;;;;;;;;;;10.40;99.90;;;;;;5050932;28;19925;-71
2022/04/18 07:29:44;;;;;;;;;;;10.50;99.90;;;;;;5050714;28;19964;-72
2022/04/18 07:32:12;;;;;;;;;;;10.60;99.90;;;;;;5050899;28;19924;-71
2022/04/18 07:34:39;;;;;;;;;;;10.60;99.90;;;;;;5050473;28;20438;-71
2022/04/18 07:37:11;;;;;;;;;;;10.60;99.90;;;;;;5051133;28;19972;-71
2022/04/18 07:39:38;;;;;;;;;;;10.60;99.90;;;;;;5050653;28;19978;-71
2022/04/18 07:42:06;;;;;;;;;;;10.60;99.90;;;;;;5051077;28;19929;-71
2022/04/18 07:44:33;;;;;;;;;;;10.70;99.90;;;;;;5050439;28;20304;-71
2022/04/18 07:47:00;;;;;;;;;;;10.80;99.90;;;;;;5050514;28;19925;-71
2022/04/18 07:49:31;;;;;;;;;;;10.80;99.90;;;;;;5050005;28;19925;-72
2022/04/18 07:51:59;;;;;;;;;;;10.90;99.90;;;;;;5050490;28;19925;-71
2022/04/18 07:54:34;;;;;;;;;;;11.00;99.90;;;;;;5050263;28;19960;-71
2022/04/18 07:57:02;;;;;;;;;;;11.10;99.90;;;;;;5050391;28;19928;-71
2022/04/18 07:59:37;;;;;;;;;;;11.10;99.90;;;;;;5049966;28;19925;-71
2022/04/18 08:02:08;;;;;;;;;;;11.20;99.90;;;;;;5049936;28;19924;-72
2022/04/18 08:04:57;;;;;;;;;;;11.30;99.90;;;;;;5050743;28;20446;-71
2022/04/18 08:07:36;;;;;;;;;;;11.40;99.90;;;;;;5050036;28;19925;-71
2022/04/18 08:10:03;;;;;;;;;;;11.50;99.90;;;;;;5049633;28;19986;-72
2022/04/18 08:12:31;;;;;;;;;;;11.60;99.90;;;;;;5049824;28;19925;-71
2022/04/18 08:15:17;;;;;;;;;;;11.80;99.90;;;;;;5051255;28;20071;-71
2022/04/18 08:17:44;;;;;;;;;;;11.80;99.90;;;;;;5049900;28;19975;-71
2022/04/18 08:20:14;;;;;;;;;;;11.80;99.90;;;;;;5049038;28;20393;-72
2022/04/18 08:22:41;;;;;;;;;;;11.90;99.90;;;;;;5049856;28;19928;-71
2022/04/18 08:25:26;;;;;;;;;;;12.00;99.90;;;;;;5051248;28;19932;-71
2022/04/18 08:28:19;;;;;;;;;;;12.10;99.90;;;;;;5049634;28;20300;-71
2022/04/18 08:30:46;;;;;;;;;;;12.20;99.90;;;;;;5049412;28;20401;-71
2022/04/18 08:33:29;;;;;;;;;;;12.30;99.90;;;;;;5049656;28;19925;-71
2022/04/18 08:35:58;;;;;;;;;;;12.40;99.90;;;;;;5049591;28;19929;-72
2022/04/18 08:38:26;;;;;;;;;;;12.50;99.90;;;;;;5049769;28;19967;-72
2022/04/18 08:41:21;;;;;;;;;;;12.60;99.90;;;;;;5050704;28;19931;-72
2022/04/18 08:43:48;;;;;;;;;;;12.70;99.90;;;;;;5049526;28;19928;-72
2022/04/18 08:46:16;;;;;;;;;;;12.80;99.90;;;;;;5049228;28;19931;-72
2022/04/18 08:54:14;;;;;;;;;;;13.10;99.90;;;;;;5049097;28;19925;-72
2022/04/18 08:56:42;;;;;;;;;;;13.20;99.90;;;;;;5049559;28;20023;-72
2022/04/18 08:59:09;;;;;;;;;;;13.30;99.90;;;;;;5049283;28;19924;-72
2022/04/18 09:01:36;;;;;;;;;;;13.40;99.90;;;;;;5049442;28;20350;-72
2022/04/18 09:04:14;;;;;;;;;;;13.60;99.90;;;;;;5048937;28;19932;-72
2022/04/18 09:06:48;;;;;;;;;;;13.70;99.90;;;;;;5049508;28;20023;-72
2022/04/18 09:09:26;;;;;;;;;;;13.80;99.90;;;;;;5049079;28;19934;-72
2022/04/18 09:11:53;;;;;;;;;;;13.90;99.90;;;;;;5049590;28;20036;-73
2022/04/18 09:14:26;;;;;;;;;;;14.00;99.90;;;;;;5048952;28;19925;-72
2022/04/18 09:16:53;;;;;;;;;;;14.10;99.90;;;;;;5049190;28;19928;-72
2022/04/18 09:19:38;;;;;;;;;;;14.00;99.90;;;;;;5050662;28;20071;-73
2022/04/18 09:22:11;;;;;;;;;;;14.10;99.90;;;;;;5049152;28;19925;-72
2022/04/18 09:24:55;;;;;;;;;;;14.20;99.90;;;;;;5048970;28;19924;-72
2022/04/18 09:27:29;;;;;;;;;;;14.30;99.90;;;;;;5049503;28;19970;-72
2022/04/18 09:30:16;;;;;;;;;;;14.50;99.90;;;;;;5050116;28;20315;-73
2022/04/18 09:32:56;;;;;;;;;;;14.60;99.90;;;;;;5053178;28;19964;-72
2022/04/18 09:35:30;;;;;;;;;;;14.60;99.90;;;;;;5052515;28;20387;-72
2022/04/18 09:38:02;;;;;;;;;;;14.70;99.90;;;;;;5053170;28;19925;-72
2022/04/18 09:40:51;;;;;;;;;;;14.80;99.90;;;;;;5053942;28;19931;-72
2022/04/18 09:43:22;;;;;;;;;;;15.00;99.90;;;;;;5052674;28;19932;-72
2022/04/18 09:45:51;;;;;;;;;;;15.00;99.90;;;;;;5052331;28;20369;-72
2022/04/18 09:48:21;;;;;;;;;;;15.10;99.90;;;;;;5052732;28;20410;-73
2022/04/18 09:51:01;;;;;;;;;;;15.10;99.90;;;;;;5052562;28;19924;-72
2022/04/18 09:53:47;;;;;;;;;;;15.20;99.90;;;;;;5052632;28;19935;-73
2022/04/18 09:56:15;;;;;;;;;;;15.30;99.90;;;;;;5052330;28;19928;-72
2022/04/18 09:58:41;;;;;;;;;;;15.50;99.90;;;;;;5052368;28;19974;-72
2022/04/18 10:01:09;;;;;;;;;;;15.60;99.90;;;;;;5052727;28;19924;-72
2022/04/18 10:03:37;;;;;;;;;;;15.60;99.90;;;;;;5052589;28;19924;-72
2022/04/18 10:06:04;;;;;;;;;;;15.70;99.90;;;;;;5052722;28;19929;-72
2022/04/18 10:08:32;;;;;;;;;;;15.70;99.90;;;;;;5052447;28;20377;-72
2022/04/18 10:11:01;;;;;;;;;;;15.90;99.90;;;;;;5058529;28;19924;-72
2022/04/18 10:13:28;;;;;;;;;;;16.10;99.90;;;;;;5072030;28;19924;-72
2022/04/18 10:15:58;;;;;;;;;;;16.10;99.90;;;;;;5072406;28;19925;-72
2022/04/18 10:18:24;;;;;;;;;;;16.10;99.90;;;;;;5072218;28;19932;-72
2022/04/18 10:20:57;;;;;;;;;;;16.10;99.90;;;;;;5072088;28;20012;-73
2022/04/18 10:23:43;;;;;;;;;;;16.10;99.80;;;;;;5071629;28;19947;-72
2022/04/18 10:26:35;;;;;;;;;;;16.20;99.10;;;;;;5071883;28;19925;-73
2022/04/18 10:29:03;;;;;;;;;;;16.40;98.80;;;;;;5071460;28;19978;-72
2022/04/18 10:31:32;;;;;;;;;;;16.40;99.50;;;;;;5071917;28;19925;-72
2022/04/18 10:33:59;;;;;;;;;;;16.40;99.20;;;;;;5071289;28;19928;-73
2022/04/18 10:36:27;;;;;;;;;;;16.40;98.90;;;;;;5071775;28;20358;-72
2022/04/18 10:38:55;;;;;;;;;;;16.40;98.40;;;;;;5071425;28;19929;-72
2022/04/18 10:41:36;;;;;;;;;;;16.60;99.90;;;;;;5070865;28;19932;-73
2022/04/18 10:44:08;;;;;;;;;;;16.90;99.10;;;;;;5068044;28;19932;-72
2022/04/18 10:46:35;;;;;;;;;;;17.00;98.10;;;;;;5071400;28;20471;-72
2022/04/18 10:49:03;;;;;;;;;;;17.10;98.90;;;;;;5071388;28;20283;-73
2022/04/18 10:51:31;;;;;;;;;;;17.20;99.00;;;;;;5071521;28;19924;-73
2022/04/18 10:54:09;;;;;;;;;;;17.40;98.60;;;;;;5071219;28;19924;-73
2022/04/18 10:56:46;;;;;;;;;;;17.50;98.70;;;;;;5071235;28;19931;-73
2022/04/18 10:59:15;;;;;;;;;;;17.50;97.40;;;;;;5071155;28;19928;-73
2022/04/18 11:01:42;;;;;;;;;;;17.40;97.20;;;;;;5071620;28;19924;-72
2022/04/18 11:04:09;;;;;;;;;;;17.60;98.80;;;;;;5071024;28;19924;-72
2022/04/18 11:06:43;;;;;;;;;;;17.70;97.90;;;;;;5071340;28;19925;-73
2022/04/18 11:09:11;;;;;;;;;;;17.80;97.50;;;;;;5070826;28;19928;-74
2022/04/18 11:11:40;;;;;;;;;;;17.80;97.40;;;;;;5059540;28;19982;-73
2022/04/18 11:14:15;;;;;;;;;;;18.00;98.20;;;;;;5050980;28;19932;-73
2022/04/18 11:16:49;;;;;;;;;;;18.30;96.90;;;;;;5050976;28;19931;-73
2022/04/18 11:19:20;;;;;;;;;;;18.60;97.50;;;;;;5050840;28;19929;-73
2022/04/18 11:22:06;;;;;;;;;;;18.70;96.80;;;;;;5050852;28;19935;-73
2022/04/18 11:24:33;;;;;;;;;;;18.80;97.00;;;;;;5050948;28;19940;-73
2022/04/18 11:27:00;;;;;;;;;;;18.80;96.00;;;;;;5050720;28;19925;-73
2022/04/18 11:29:29;;;;;;;;;;;18.70;94.60;;;;;;5050751;28;19925;-73
2022/04/18 11:31:56;;;;;;;;;;;18.60;95.30;;;;;;5050855;28;19928;-73
2022/04/18 11:34:25;;;;;;;;;;;18.80;95.70;;;;;;5050381;28;19925;-73
2022/04/18 11:36:54;;;;;;;;;;;19.10;96.30;;;;;;5050689;28;19940;-73
2022/04/18 11:39:21;;;;;;;;;;;19.40;95.70;;;;;;5050524;28;19925;-73
2022/04/18 11:41:48;;;;;;;;;;;19.60;95.20;;;;;;5050644;28;19928;-73
2022/04/18 11:44:18;;;;;;;;;;;19.90;96.50;;;;;;5050183;28;19932;-73
2022/04/18 11:46:46;;;;;;;;;;;21.40;97.00;;;;;;5050409;28;19928;-73
2022/04/18 11:49:13;;;;;;;;;;;23.70;95.20;;;;;;5050221;28;19925;-73
2022/04/18 11:51:40;;;;;;;;;;;24.70;94.90;;;;;;5050516;28;19925;-74
2022/04/18 11:54:07;;;;;;;;;;;26.20;94.30;;;;;;5050192;28;19924;-74
2022/04/18 11:56:33;;;;;;;;;;;27.60;94.60;;;;;;5050320;28;19925;-74
2022/04/18 11:59:03;;;;;;;;;;;28.60;93.90;;;;;;5050103;28;20335;-73
2022/04/18 12:07:01;;;;;;;;;;;29.00;91.20;;;;;;5050071;28;19925;-74
2022/04/18 12:09:28;;;;;;;;;;;27.50;91.40;;;;;;5049596;28;20335;-74
2022/04/18 12:11:55;;;;;;;;;;;26.30;92.00;;;;;;5063940;28;20024;-73
2022/04/18 12:14:21;;;;;;;;;;;26.30;91.30;;;;;;5069910;28;20399;-74
2022/04/18 12:16:48;;;;;;;;;;;25.60;90.40;;;;;;5069915;28;19985;-74
2022/04/18 12:19:17;;;;;;;;;;;26.30;92.00;;;;;;5070081;28;19928;-73
2022/04/18 12:21:44;;;;;;;;;;;27.20;92.20;;;;;;5070030;28;20311;-74
2022/04/18 12:24:11;;;;;;;;;;;27.60;90.80;;;;;;5069700;28;19932;-74
2022/04/18 12:26:38;;;;;;;;;;;27.60;91.00;;;;;;5070026;28;19925;-74
2022/04/18 12:29:06;;;;;;;;;;;26.90;90.10;;;;;;5069974;28;20384;-74
2022/04/18 12:31:33;;;;;;;;;;;27.50;90.20;;;;;;5070041;28;20011;-74
2022/04/18 12:34:00;;;;;;;;;;;27.30;91.70;;;;;;5069495;28;19933;-74
2022/04/18 12:36:29;;;;;;;;;;;27.80;90.60;;;;;;5069919;28;20272;-74
2022/04/18 12:38:56;;;;;;;;;;;27.60;90.10;;;;;;5069502;28;19928;-73
2022/04/18 12:41:29;;;;;;;;;;;27.20;90.40;;;;;;5069951;28;19924;-74
2022/04/18 12:43:56;;;;;;;;;;;27.00;91.00;;;;;;5069697;28;19933;-73
2022/04/18 12:46:26;;;;;;;;;;;27.40;90.20;;;;;;5069969;28;19978;-74
2022/04/18 12:48:53;;;;;;;;;;;28.20;91.10;;;;;;5069764;28;19978;-74
2022/04/18 12:51:31;;;;;;;;;;;28.30;90.80;;;;;;5069800;28;19925;-74
2022/04/18 12:53:58;;;;;;;;;;;27.50;90.30;;;;;;5069395;28;20377;-74
2022/04/18 12:56:26;;;;;;;;;;;27.30;90.10;;;;;;5069883;28;19924;-74
2022/04/18 12:59:00;;;;;;;;;;;27.50;89.60;;;;;;5069719;28;19929;-74
2022/04/18 13:01:29;;;;;;;;;;;26.70;88.70;;;;;;5069545;28;20445;-74
2022/04/18 13:03:56;;;;;;;;;;;27.00;90.70;;;;;;5069276;28;19928;-74
2022/04/18 13:06:23;;;;;;;;;;;27.40;91.50;;;;;;5072766;28;20449;-74
2022/04/18 13:08:55;;;;;;;;;;;28.20;91.20;;;;;;5073349;28;19973;-73
2022/04/18 13:11:22;;;;;;;;;;;28.10;90.90;;;;;;5063969;28;19971;-74
2022/04/18 13:13:49;;;;;;;;;;;27.80;90.40;;;;;;5053305;28;19933;-74
2022/04/18 13:16:22;;;;;;;;;;;27.50;89.70;;;;;;5053262;28;19932;-74
2022/04/18 13:18:57;;;;;;;;;;;27.30;90.30;;;;;;5053408;28;19979;-73
2022/04/18 13:21:23;;;;;;;;;;;27.10;88.60;;;;;;5053351;28;19924;-74
2022/04/18 13:23:52;;;;;;;;;;;27.50;90.20;;;;;;5052783;28;19935;-74
2022/04/18 13:26:18;;;;;;;;;;;27.30;91.20;;;;;;5053206;28;19979;-74
2022/04/18 13:28:45;;;;;;;;;;;27.40;91.40;;;;;;5052941;28;19931;-73
2022/04/18 13:31:12;;;;;;;;;;;27.80;90.60;;;;;;5052889;28;19933;-74
2022/04/18 13:33:39;;;;;;;;;;;27.90;90.90;;;;;;5052840;28;19924;-73
2022/04/18 13:38:49;;;;;;;;;;;27.90;90.90;;;;;;5052435;28;19924;-74
2022/04/18 13:41:18;;;;;;;;;;;27.90;90.70;;;;;;5052923;28;20395;-74
2022/04/18 13:43:44;;;;;;;;;;;28.80;90.80;;;;;;5052653;28;20007;-74
2022/04/18 13:46:11;;;;;;;;;;;29.20;90.50;;;;;;5052805;28;20339;-74
2022/04/18 13:48:38;;;;;;;;;;;28.40;90.40;;;;;;5052572;28;20355;-73
2022/04/18 13:51:05;;;;;;;;;;;27.70;90.40;;;;;;5052411;28;19925;-74
2022/04/18 13:53:32;;;;;;;;;;;28.00;90.20;;;;;;5052217;28;19928;-74
2022/04/18 13:55:58;;;;;;;;;;;28.10;90.40;;;;;;5052481;28;19925;-74
2022/04/18 13:58:27;;;;;;;;;;;28.40;90.40;;;;;;5052651;28;19925;-74
2022/04/18 14:00:53;;;;;;;;;;;27.90;89.60;;;;;;5051912;28;19925;-74
2022/04/18 14:03:20;;;;;;;;;;;28.30;90.90;;;;;;5052216;28;19929;-73
2022/04/18 14:05:47;;;;;;;;;;;28.40;90.20;;;;;;5051955;28;19929;-74
2022/04/18 14:08:14;;;;;;;;;;;28.00;90.10;;;;;;5052295;28;19929;-75
2022/04/18 14:10:40;;;;;;;;;;;27.70;89.20;;;;;;5055496;28;19932;-73
2022/04/18 14:13:08;;;;;;;;;;;27.50;87.60;;;;;;5072257;28;20342;-73
2022/04/18 14:21:04;;;;;;;;;;;27.90;87.70;;;;;;5071770;28;20315;-73
2022/04/18 14:23:31;;;;;;;;;;;28.00;88.40;;;;;;5072079;28;19928;-73
2022/04/18 14:25:58;;;;;;;;;;;27.40;87.20;;;;;;5071779;28;19954;-73
2022/04/18 14:28:25;;;;;;;;;;;27.30;87.80;;;;;;5072135;28;19924;-74
2022/04/18 14:30:53;;;;;;;;;;;27.70;86.90;;;;;;5071470;28;20399;-73
2022/04/18 14:33:21;;;;;;;;;;;27.20;85.70;;;;;;5071777;28;19924;-73
2022/04/18 14:35:48;;;;;;;;;;;26.60;86.50;;;;;;5071273;28;19932;-73
2022/04/18 14:38:15;;;;;;;;;;;28.00;88.70;;;;;;5072259;28;20323;-74
2022/04/18 14:40:43;;;;;;;;;;;28.70;87.90;;;;;;5071403;28;19924;-74
2022/04/18 14:43:16;;;;;;;;;;;29.10;88.40;;;;;;5071857;28;19925;-74
2022/04/18 14:45:43;;;;;;;;;;;30.10;88.10;;;;;;5071161;28;19932;-74
2022/04/18 14:48:11;;;;;;;;;;;30.40;85.90;;;;;;5071428;28;19928;-74
2022/04/18 14:50:38;;;;;;;;;;;31.10;87.00;;;;;;5071000;28;20053;-74
2022/04/18 14:53:08;;;;;;;;;;;29.60;85.70;;;;;;5071699;28;19974;-74
2022/04/18 14:55:34;;;;;;;;;;;28.80;84.70;;;;;;5071064;28;19982;-74
2022/04/18 14:58:01;;;;;;;;;;;29.10;84.80;;;;;;5071344;28;20384;-74
2022/04/18 15:00:31;;;;;;;;;;;29.10;84.50;;;;;;5071174;28;19928;-74
2022/04/18 15:02:58;;;;;;;;;;;29.50;87.00;;;;;;5071442;28;19925;-73
2022/04/18 15:05:26;;;;;;;;;;;29.10;86.80;;;;;;5070969;28;20379;-74
2022/04/18 15:07:53;;;;;;;;;;;29.30;85.10;;;;;;5071370;28;19928;-73
2022/04/18 15:10:20;;;;;;;;;;;29.30;83.70;;;;;;5069949;28;19931;-73
2022/04/18 15:12:47;;;;;;;;;;;29.40;85.40;;;;;;5051157;28;19928;-73